sensor_id;sensor_type;location;lat;lon;timestamp;P1;durP1;ratioP1;P2;durP2;ratioP2
76606;SDS011;65498;50.916;4.698;2023-02-28T00:01:12;5.50;;;2.10;;
76606;SDS011;65498;50.916;4.698;2023-02-28T00:03:41;6.12;;;2.40;;
76606;SDS011;65498;50.916;4.698;2023-02-28T00:06:08;5.75;;;2.20;;
76606;SDS011;65498;50.916;4.698;2023-02-28T00:08:37;5.47;;;2.15;;
76606;SDS011;65498;50.916;4.698;2023-02-28T00:11:06;5.33;;;1.90;;
76606;SDS011;65498;50.916;4.698;2023-02-28T00:13:35;5.28;;;2.37;;
76606;SDS011;65498;50.916;4.698;2023-02-28T00:16:06;5.20;;;1.98;;
76606;SDS011;65498;50.916;4.698;2023-02-28T00:18:36;4.83;;;1.90;;
76606;SDS011;65498;50.916;4.698;2023-02-28T00:21:04;5.40;;;2.10;;
76606;SDS011;65498;50.916;4.698;2023-02-28T00:23:32;5.90;;;2.25;;
76606;SDS011;65498;50.916;4.698;2023-02-28T00:26:00;6.25;;;2.17;;
76606;SDS011;65498;50.916;4.698;2023-02-28T00:28:28;7.12;;;1.98;;
76606;SDS011;65498;50.916;4.698;2023-02-28T00:30:56;5.55;;;2.10;;
76606;SDS011;65498;50.916;4.698;2023-02-28T00:33:23;4.55;;;1.90;;
76606;SDS011;65498;50.916;4.698;2023-02-28T00:35:51;4.40;;;1.90;;
76606;SDS011;65498;50.916;4.698;2023-02-28T00:38:18;4.87;;;1.77;;
76606;SDS011;65498;50.916;4.698;2023-02-28T00:40:46;4.05;;;1.62;;
76606;SDS011;65498;50.916;4.698;2023-02-28T00:43:13;4.55;;;1.70;;
76606;SDS011;65498;50.916;4.698;2023-02-28T00:45:41;5.95;;;2.10;;
76606;SDS011;65498;50.916;4.698;2023-02-28T00:48:08;5.83;;;1.92;;
76606;SDS011;65498;50.916;4.698;2023-02-28T00:50:36;6.15;;;3.02;;
76606;SDS011;65498;50.916;4.698;2023-02-28T00:53:03;4.47;;;1.77;;
76606;SDS011;65498;50.916;4.698;2023-02-28T00:55:31;4.72;;;1.87;;
76606;SDS011;65498;50.916;4.698;2023-02-28T00:57:58;6.17;;;2.02;;
76606;SDS011;65498;50.916;4.698;2023-02-28T01:00:26;4.87;;;1.72;;
76606;SDS011;65498;50.916;4.698;2023-02-28T01:02:53;6.30;;;2.00;;
76606;SDS011;65498;50.916;4.698;2023-02-28T01:05:21;6.78;;;1.98;;
76606;SDS011;65498;50.916;4.698;2023-02-28T01:07:48;5.83;;;2.20;;
76606;SDS011;65498;50.916;4.698;2023-02-28T01:10:16;11.05;;;1.92;;
76606;SDS011;65498;50.916;4.698;2023-02-28T01:12:43;7.65;;;2.10;;
76606;SDS011;65498;50.916;4.698;2023-02-28T01:15:11;8.83;;;1.85;;
76606;SDS011;65498;50.916;4.698;2023-02-28T01:17:39;6.75;;;2.02;;
76606;SDS011;65498;50.916;4.698;2023-02-28T01:20:06;5.65;;;2.00;;
76606;SDS011;65498;50.916;4.698;2023-02-28T01:22:35;6.47;;;2.58;;
76606;SDS011;65498;50.916;4.698;2023-02-28T01:25:03;5.22;;;1.82;;
76606;SDS011;65498;50.916;4.698;2023-02-28T01:27:31;5.28;;;1.70;;
76606;SDS011;65498;50.916;4.698;2023-02-28T01:30:00;6.22;;;1.98;;
76606;SDS011;65498;50.916;4.698;2023-02-28T01:32:27;5.83;;;1.92;;
76606;SDS011;65498;50.916;4.698;2023-02-28T01:34:55;6.53;;;1.95;;
76606;SDS011;65498;50.916;4.698;2023-02-28T01:37:22;4.75;;;1.72;;
76606;SDS011;65498;50.916;4.698;2023-02-28T01:39:50;5.42;;;2.00;;
76606;SDS011;65498;50.916;4.698;2023-02-28T01:42:17;4.95;;;1.85;;
76606;SDS011;65498;50.916;4.698;2023-02-28T01:47:43;4.33;;;1.75;;
76606;SDS011;65498;50.916;4.698;2023-02-28T01:50:15;4.92;;;1.90;;
76606;SDS011;65498;50.916;4.698;2023-02-28T01:52:45;4.75;;;1.80;;
76606;SDS011;65498;50.916;4.698;2023-02-28T01:55:15;5.53;;;1.80;;
76606;SDS011;65498;50.916;4.698;2023-02-28T01:57:46;4.65;;;1.70;;
76606;SDS011;65498;50.916;4.698;2023-02-28T02:00:19;6.00;;;2.12;;
76606;SDS011;65498;50.916;4.698;2023-02-28T02:02:50;4.45;;;1.70;;
76606;SDS011;65498;50.916;4.698;2023-02-28T02:05:27;4.83;;;1.77;;
76606;SDS011;65498;50.916;4.698;2023-02-28T02:08:01;5.33;;;1.80;;
76606;SDS011;65498;50.916;4.698;2023-02-28T02:10:32;5.25;;;1.92;;
76606;SDS011;65498;50.916;4.698;2023-02-28T02:13:05;4.62;;;1.55;;
76606;SDS011;65498;50.916;4.698;2023-02-28T02:21:16;9.70;;;2.02;;
76606;SDS011;65498;50.916;4.698;2023-02-28T02:26:55;4.85;;;1.95;;
76606;SDS011;65498;50.916;4.698;2023-02-28T02:29:44;4.40;;;1.55;;
76606;SDS011;65498;50.916;4.698;2023-02-28T02:32:26;4.22;;;1.70;;
76606;SDS011;65498;50.916;4.698;2023-02-28T02:37:50;4.35;;;1.70;;
76606;SDS011;65498;50.916;4.698;2023-02-28T02:40:23;4.85;;;1.70;;
76606;SDS011;65498;50.916;4.698;2023-02-28T02:48:13;5.05;;;1.70;;
76606;SDS011;65498;50.916;4.698;2023-02-28T02:50:46;7.00;;;2.00;;
76606;SDS011;65498;50.916;4.698;2023-02-28T02:53:20;5.90;;;1.90;;
76606;SDS011;65498;50.916;4.698;2023-02-28T02:55:50;6.62;;;2.17;;
76606;SDS011;65498;50.916;4.698;2023-02-28T02:58:22;4.90;;;1.92;;
76606;SDS011;65498;50.916;4.698;2023-02-28T03:00:52;5.45;;;2.00;;
76606;SDS011;65498;50.916;4.698;2023-02-28T03:03:21;5.40;;;1.80;;
76606;SDS011;65498;50.916;4.698;2023-02-28T03:05:51;5.35;;;2.00;;
76606;SDS011;65498;50.916;4.698;2023-02-28T03:08:19;3.90;;;1.50;;
76606;SDS011;65498;50.916;4.698;2023-02-28T03:10:52;4.58;;;1.75;;
76606;SDS011;65498;50.916;4.698;2023-02-28T03:13:34;5.50;;;1.98;;
76606;SDS011;65498;50.916;4.698;2023-02-28T03:16:22;6.95;;;2.62;;
76606;SDS011;65498;50.916;4.698;2023-02-28T03:18:58;4.28;;;1.65;;
76606;SDS011;65498;50.916;4.698;2023-02-28T03:21:49;5.12;;;1.60;;
76606;SDS011;65498;50.916;4.698;2023-02-28T03:24:23;4.53;;;1.60;;
76606;SDS011;65498;50.916;4.698;2023-02-28T03:26:57;5.60;;;1.70;;
76606;SDS011;65498;50.916;4.698;2023-02-28T03:32:05;5.15;;;2.00;;
76606;SDS011;65498;50.916;4.698;2023-02-28T03:34:34;4.55;;;1.87;;
76606;SDS011;65498;50.916;4.698;2023-02-28T03:37:10;4.50;;;1.60;;
76606;SDS011;65498;50.916;4.698;2023-02-28T03:39:40;4.42;;;1.70;;
76606;SDS011;65498;50.916;4.698;2023-02-28T03:42:15;6.17;;;2.02;;
76606;SDS011;65498;50.916;4.698;2023-02-28T03:44:42;5.50;;;1.85;;
76606;SDS011;65498;50.916;4.698;2023-02-28T03:47:17;4.37;;;1.52;;
76606;SDS011;65498;50.916;4.698;2023-02-28T03:49:46;4.72;;;1.72;;
76606;SDS011;65498;50.916;4.698;2023-02-28T03:52:22;4.25;;;1.70;;
76606;SDS011;65498;50.916;4.698;2023-02-28T03:54:52;6.37;;;1.62;;
76606;SDS011;65498;50.916;4.698;2023-02-28T03:57:32;5.28;;;1.90;;
76606;SDS011;65498;50.916;4.698;2023-02-28T03:59:59;6.87;;;1.98;;
76606;SDS011;65498;50.916;4.698;2023-02-28T04:02:31;5.12;;;1.85;;
76606;SDS011;65498;50.916;4.698;2023-02-28T04:04:59;4.95;;;1.62;;
76606;SDS011;65498;50.916;4.698;2023-02-28T04:07:30;4.50;;;1.52;;
76606;SDS011;65498;50.916;4.698;2023-02-28T04:09:59;5.80;;;2.00;;
76606;SDS011;65498;50.916;4.698;2023-02-28T04:12:26;4.85;;;1.80;;
76606;SDS011;65498;50.916;4.698;2023-02-28T04:14:54;4.85;;;1.60;;
76606;SDS011;65498;50.916;4.698;2023-02-28T04:17:21;5.17;;;1.90;;
76606;SDS011;65498;50.916;4.698;2023-02-28T04:19:49;4.05;;;1.60;;
76606;SDS011;65498;50.916;4.698;2023-02-28T04:22:16;5.10;;;1.90;;
76606;SDS011;65498;50.916;4.698;2023-02-28T04:24:44;5.20;;;1.90;;
76606;SDS011;65498;50.916;4.698;2023-02-28T04:27:11;4.90;;;1.82;;
76606;SDS011;65498;50.916;4.698;2023-02-28T04:29:40;3.75;;;1.60;;
76606;SDS011;65498;50.916;4.698;2023-02-28T04:32:10;4.60;;;1.70;;
76606;SDS011;65498;50.916;4.698;2023-02-28T04:34:37;5.20;;;1.90;;
76606;SDS011;65498;50.916;4.698;2023-02-28T04:37:05;4.33;;;1.80;;
76606;SDS011;65498;50.916;4.698;2023-02-28T04:39:34;5.50;;;1.90;;
76606;SDS011;65498;50.916;4.698;2023-02-28T04:42:03;4.25;;;1.67;;
76606;SDS011;65498;50.916;4.698;2023-02-28T04:44:31;4.95;;;1.82;;
76606;SDS011;65498;50.916;4.698;2023-02-28T04:46:58;4.60;;;2.02;;
76606;SDS011;65498;50.916;4.698;2023-02-28T04:49:26;4.65;;;1.60;;
76606;SDS011;65498;50.916;4.698;2023-02-28T04:51:53;6.35;;;2.25;;
76606;SDS011;65498;50.916;4.698;2023-02-28T04:54:21;4.45;;;1.80;;
76606;SDS011;65498;50.916;4.698;2023-02-28T04:56:48;5.55;;;1.90;;
76606;SDS011;65498;50.916;4.698;2023-02-28T04:59:16;5.20;;;2.00;;
76606;SDS011;65498;50.916;4.698;2023-02-28T05:01:47;4.42;;;1.80;;
76606;SDS011;65498;50.916;4.698;2023-02-28T05:04:15;6.42;;;2.45;;
76606;SDS011;65498;50.916;4.698;2023-02-28T05:06:43;5.85;;;1.60;;
76606;SDS011;65498;50.916;4.698;2023-02-28T05:09:11;6.05;;;1.90;;
76606;SDS011;65498;50.916;4.698;2023-02-28T05:11:39;4.85;;;1.80;;
76606;SDS011;65498;50.916;4.698;2023-02-28T05:14:11;5.50;;;1.90;;
76606;SDS011;65498;50.916;4.698;2023-02-28T05:16:40;7.97;;;2.05;;
76606;SDS011;65498;50.916;4.698;2023-02-28T05:19:07;4.65;;;1.80;;
76606;SDS011;65498;50.916;4.698;2023-02-28T05:21:36;5.83;;;2.47;;
76606;SDS011;65498;50.916;4.698;2023-02-28T05:24:12;5.22;;;1.87;;
76606;SDS011;65498;50.916;4.698;2023-02-28T05:26:42;5.10;;;2.17;;
76606;SDS011;65498;50.916;4.698;2023-02-28T05:29:09;5.35;;;1.82;;
76606;SDS011;65498;50.916;4.698;2023-02-28T05:31:37;5.17;;;1.90;;
76606;SDS011;65498;50.916;4.698;2023-02-28T05:34:05;8.23;;;2.35;;
76606;SDS011;65498;50.916;4.698;2023-02-28T05:36:33;5.30;;;2.08;;
76606;SDS011;65498;50.916;4.698;2023-02-28T05:39:00;5.12;;;1.90;;
76606;SDS011;65498;50.916;4.698;2023-02-28T05:41:29;6.45;;;2.02;;
76606;SDS011;65498;50.916;4.698;2023-02-28T05:43:57;5.30;;;1.90;;
76606;SDS011;65498;50.916;4.698;2023-02-28T05:46:25;6.27;;;2.40;;
76606;SDS011;65498;50.916;4.698;2023-02-28T05:48:53;5.03;;;2.00;;
76606;SDS011;65498;50.916;4.698;2023-02-28T05:51:22;5.40;;;1.98;;
76606;SDS011;65498;50.916;4.698;2023-02-28T05:53:49;4.80;;;2.10;;
76606;SDS011;65498;50.916;4.698;2023-02-28T05:56:17;5.17;;;1.77;;
76606;SDS011;65498;50.916;4.698;2023-02-28T05:58:44;4.90;;;2.10;;
76606;SDS011;65498;50.916;4.698;2023-02-28T06:01:30;5.05;;;1.80;;
76606;SDS011;65498;50.916;4.698;2023-02-28T06:04:02;5.63;;;1.90;;
76606;SDS011;65498;50.916;4.698;2023-02-28T06:06:31;4.92;;;2.02;;
76606;SDS011;65498;50.916;4.698;2023-02-28T06:09:05;4.42;;;1.60;;
76606;SDS011;65498;50.916;4.698;2023-02-28T06:11:33;4.85;;;1.77;;
76606;SDS011;65498;50.916;4.698;2023-02-28T06:14:01;4.28;;;1.90;;
76606;SDS011;65498;50.916;4.698;2023-02-28T06:16:30;5.95;;;2.00;;
76606;SDS011;65498;50.916;4.698;2023-02-28T06:18:59;5.50;;;2.02;;
76606;SDS011;65498;50.916;4.698;2023-02-28T06:21:28;5.60;;;2.05;;
76606;SDS011;65498;50.916;4.698;2023-02-28T06:23:57;5.12;;;1.80;;
76606;SDS011;65498;50.916;4.698;2023-02-28T06:26:25;5.50;;;1.80;;
76606;SDS011;65498;50.916;4.698;2023-02-28T06:28:52;4.80;;;2.05;;
76606;SDS011;65498;50.916;4.698;2023-02-28T06:31:20;6.22;;;2.05;;
76606;SDS011;65498;50.916;4.698;2023-02-28T06:33:48;5.12;;;1.87;;
76606;SDS011;65498;50.916;4.698;2023-02-28T06:36:16;4.97;;;1.90;;
76606;SDS011;65498;50.916;4.698;2023-02-28T06:38:44;6.55;;;2.37;;
76606;SDS011;65498;50.916;4.698;2023-02-28T06:41:13;5.05;;;2.05;;
76606;SDS011;65498;50.916;4.698;2023-02-28T06:43:42;5.05;;;1.95;;
76606;SDS011;65498;50.916;4.698;2023-02-28T06:46:10;5.30;;;2.02;;
76606;SDS011;65498;50.916;4.698;2023-02-28T06:48:40;5.55;;;2.10;;
76606;SDS011;65498;50.916;4.698;2023-02-28T06:53:39;5.20;;;1.87;;
76606;SDS011;65498;50.916;4.698;2023-02-28T06:56:07;6.80;;;2.15;;
76606;SDS011;65498;50.916;4.698;2023-02-28T06:58:37;4.87;;;2.27;;
76606;SDS011;65498;50.916;4.698;2023-02-28T07:01:05;4.62;;;1.90;;
76606;SDS011;65498;50.916;4.698;2023-02-28T07:03:34;5.50;;;1.80;;
76606;SDS011;65498;50.916;4.698;2023-02-28T07:06:04;5.67;;;2.22;;
76606;SDS011;65498;50.916;4.698;2023-02-28T07:08:32;4.67;;;1.95;;
76606;SDS011;65498;50.916;4.698;2023-02-28T07:11:01;5.97;;;1.90;;
76606;SDS011;65498;50.916;4.698;2023-02-28T07:13:29;5.62;;;2.40;;
76606;SDS011;65498;50.916;4.698;2023-02-28T07:15:58;5.00;;;1.65;;
76606;SDS011;65498;50.916;4.698;2023-02-28T07:18:28;5.30;;;1.87;;
76606;SDS011;65498;50.916;4.698;2023-02-28T07:20:56;5.25;;;2.10;;
76606;SDS011;65498;50.916;4.698;2023-02-28T07:23:23;4.33;;;1.80;;
76606;SDS011;65498;50.916;4.698;2023-02-28T07:25:51;5.35;;;2.05;;
76606;SDS011;65498;50.916;4.698;2023-02-28T07:28:18;7.47;;;2.45;;
76606;SDS011;65498;50.916;4.698;2023-02-28T07:30:46;4.58;;;1.87;;
76606;SDS011;65498;50.916;4.698;2023-02-28T07:33:14;6.53;;;2.33;;
76606;SDS011;65498;50.916;4.698;2023-02-28T07:35:42;6.78;;;2.65;;
76606;SDS011;65498;50.916;4.698;2023-02-28T07:38:10;6.08;;;2.30;;
76606;SDS011;65498;50.916;4.698;2023-02-28T07:40:39;9.20;;;2.20;;
76606;SDS011;65498;50.916;4.698;2023-02-28T07:43:07;7.03;;;2.33;;
76606;SDS011;65498;50.916;4.698;2023-02-28T07:45:34;7.58;;;3.08;;
76606;SDS011;65498;50.916;4.698;2023-02-28T07:48:02;9.70;;;2.75;;
76606;SDS011;65498;50.916;4.698;2023-02-28T07:50:29;8.23;;;2.85;;
76606;SDS011;65498;50.916;4.698;2023-02-28T07:52:57;10.43;;;3.37;;
76606;SDS011;65498;50.916;4.698;2023-02-28T07:55:25;8.43;;;3.05;;
76606;SDS011;65498;50.916;4.698;2023-02-28T07:57:53;10.15;;;2.90;;
76606;SDS011;65498;50.916;4.698;2023-02-28T08:00:21;8.48;;;3.00;;
76606;SDS011;65498;50.916;4.698;2023-02-28T08:02:49;7.30;;;2.95;;
76606;SDS011;65498;50.916;4.698;2023-02-28T08:05:17;7.55;;;2.87;;
76606;SDS011;65498;50.916;4.698;2023-02-28T08:07:45;8.68;;;3.00;;
76606;SDS011;65498;50.916;4.698;2023-02-28T08:10:13;7.67;;;3.70;;
76606;SDS011;65498;50.916;4.698;2023-02-28T08:12:40;7.55;;;2.50;;
76606;SDS011;65498;50.916;4.698;2023-02-28T08:15:08;8.00;;;2.80;;
76606;SDS011;65498;50.916;4.698;2023-02-28T08:17:36;7.95;;;2.85;;
76606;SDS011;65498;50.916;4.698;2023-02-28T08:20:04;7.12;;;2.80;;
76606;SDS011;65498;50.916;4.698;2023-02-28T08:22:32;8.13;;;2.70;;
76606;SDS011;65498;50.916;4.698;2023-02-28T08:25:00;9.08;;;2.90;;
76606;SDS011;65498;50.916;4.698;2023-02-28T08:27:27;8.05;;;3.08;;
76606;SDS011;65498;50.916;4.698;2023-02-28T08:29:55;8.80;;;2.72;;
76606;SDS011;65498;50.916;4.698;2023-02-28T08:32:22;8.35;;;2.70;;
76606;SDS011;65498;50.916;4.698;2023-02-28T08:34:50;7.20;;;2.10;;
76606;SDS011;65498;50.916;4.698;2023-02-28T08:37:18;5.33;;;2.33;;
76606;SDS011;65498;50.916;4.698;2023-02-28T08:39:46;6.33;;;2.62;;
76606;SDS011;65498;50.916;4.698;2023-02-28T08:42:13;5.87;;;2.77;;
76606;SDS011;65498;50.916;4.698;2023-02-28T08:44:41;5.70;;;2.05;;
76606;SDS011;65498;50.916;4.698;2023-02-28T08:47:08;6.75;;;2.70;;
76606;SDS011;65498;50.916;4.698;2023-02-28T08:49:36;6.90;;;2.37;;
76606;SDS011;65498;50.916;4.698;2023-02-28T08:52:04;7.92;;;2.85;;
76606;SDS011;65498;50.916;4.698;2023-02-28T08:54:32;6.22;;;2.30;;
76606;SDS011;65498;50.916;4.698;2023-02-28T08:57:00;6.50;;;2.17;;
76606;SDS011;65498;50.916;4.698;2023-02-28T08:59:28;7.08;;;2.50;;
76606;SDS011;65498;50.916;4.698;2023-02-28T09:01:55;7.05;;;2.47;;
76606;SDS011;65498;50.916;4.698;2023-02-28T09:04:23;6.97;;;2.17;;
76606;SDS011;65498;50.916;4.698;2023-02-28T09:06:51;5.40;;;2.00;;
76606;SDS011;65498;50.916;4.698;2023-02-28T09:09:18;6.22;;;2.45;;
76606;SDS011;65498;50.916;4.698;2023-02-28T09:11:46;6.70;;;2.37;;
76606;SDS011;65498;50.916;4.698;2023-02-28T09:14:13;7.15;;;2.67;;
76606;SDS011;65498;50.916;4.698;2023-02-28T09:16:42;6.62;;;2.27;;
76606;SDS011;65498;50.916;4.698;2023-02-28T09:19:11;6.47;;;2.47;;
76606;SDS011;65498;50.916;4.698;2023-02-28T09:21:39;5.42;;;1.92;;
76606;SDS011;65498;50.916;4.698;2023-02-28T09:24:06;6.28;;;2.33;;
76606;SDS011;65498;50.916;4.698;2023-02-28T09:26:34;5.78;;;2.20;;
76606;SDS011;65498;50.916;4.698;2023-02-28T09:29:02;5.67;;;2.05;;
76606;SDS011;65498;50.916;4.698;2023-02-28T09:31:29;5.83;;;2.05;;
76606;SDS011;65498;50.916;4.698;2023-02-28T09:33:57;5.15;;;1.90;;
76606;SDS011;65498;50.916;4.698;2023-02-28T09:36:26;6.87;;;2.08;;
76606;SDS011;65498;50.916;4.698;2023-02-28T09:38:55;7.28;;;2.15;;
76606;SDS011;65498;50.916;4.698;2023-02-28T09:41:24;8.43;;;2.20;;
76606;SDS011;65498;50.916;4.698;2023-02-28T09:43:59;9.68;;;2.05;;
76606;SDS011;65498;50.916;4.698;2023-02-28T09:46:30;6.03;;;1.92;;
76606;SDS011;65498;50.916;4.698;2023-02-28T09:49:13;4.70;;;1.95;;
76606;SDS011;65498;50.916;4.698;2023-02-28T09:54:15;5.85;;;1.85;;
76606;SDS011;65498;50.916;4.698;2023-02-28T09:56:53;4.87;;;1.70;;
76606;SDS011;65498;50.916;4.698;2023-02-28T09:59:28;5.12;;;1.77;;
76606;SDS011;65498;50.916;4.698;2023-02-28T10:04:54;4.72;;;1.70;;
76606;SDS011;65498;50.916;4.698;2023-02-28T10:12:57;4.85;;;1.82;;
76606;SDS011;65498;50.916;4.698;2023-02-28T10:15:28;6.67;;;1.90;;
76606;SDS011;65498;50.916;4.698;2023-02-28T10:17:58;5.20;;;1.70;;
76606;SDS011;65498;50.916;4.698;2023-02-28T10:20:32;5.28;;;1.72;;
76606;SDS011;65498;50.916;4.698;2023-02-28T10:25:34;7.60;;;1.75;;
76606;SDS011;65498;50.916;4.698;2023-02-28T10:30:41;3.87;;;1.40;;
76606;SDS011;65498;50.916;4.698;2023-02-28T10:33:18;3.55;;;1.60;;
76606;SDS011;65498;50.916;4.698;2023-02-28T10:35:47;4.37;;;1.50;;
76606;SDS011;65498;50.916;4.698;2023-02-28T10:38:16;3.75;;;1.40;;
76606;SDS011;65498;50.916;4.698;2023-02-28T10:40:48;4.60;;;1.72;;
76606;SDS011;65498;50.916;4.698;2023-02-28T10:45:56;5.72;;;1.42;;
76606;SDS011;65498;50.916;4.698;2023-02-28T10:48:27;5.28;;;2.35;;
76606;SDS011;65498;50.916;4.698;2023-02-28T10:51:02;4.70;;;1.40;;
76606;SDS011;65498;50.916;4.698;2023-02-28T10:53:33;5.25;;;1.80;;
76606;SDS011;65498;50.916;4.698;2023-02-28T11:01:20;4.10;;;1.50;;
76606;SDS011;65498;50.916;4.698;2023-02-28T11:04:01;4.87;;;1.67;;
76606;SDS011;65498;50.916;4.698;2023-02-28T11:06:34;4.85;;;1.30;;
76606;SDS011;65498;50.916;4.698;2023-02-28T11:09:06;3.87;;;1.47;;
76606;SDS011;65498;50.916;4.698;2023-02-28T11:11:42;3.72;;;1.70;;
76606;SDS011;65498;50.916;4.698;2023-02-28T11:14:24;3.35;;;1.37;;
76606;SDS011;65498;50.916;4.698;2023-02-28T11:16:49;4.22;;;1.47;;
76606;SDS011;65498;50.916;4.698;2023-02-28T11:19:23;4.17;;;1.60;;
76606;SDS011;65498;50.916;4.698;2023-02-28T11:21:52;4.40;;;1.50;;
76606;SDS011;65498;50.916;4.698;2023-02-28T11:24:26;3.80;;;1.57;;
76606;SDS011;65498;50.916;4.698;2023-02-28T11:26:55;4.22;;;1.40;;
76606;SDS011;65498;50.916;4.698;2023-02-28T11:29:24;4.55;;;1.40;;
76606;SDS011;65498;50.916;4.698;2023-02-28T11:32:13;3.58;;;1.45;;
76606;SDS011;65498;50.916;4.698;2023-02-28T11:34:43;3.10;;;1.10;;
76606;SDS011;65498;50.916;4.698;2023-02-28T11:37:13;3.25;;;1.20;;
76606;SDS011;65498;50.916;4.698;2023-02-28T11:39:42;4.67;;;1.30;;
76606;SDS011;65498;50.916;4.698;2023-02-28T11:45:19;4.70;;;1.60;;
76606;SDS011;65498;50.916;4.698;2023-02-28T11:47:54;4.00;;;1.30;;
76606;SDS011;65498;50.916;4.698;2023-02-28T11:50:46;3.87;;;1.32;;
76606;SDS011;65498;50.916;4.698;2023-02-28T11:55:47;3.75;;;1.15;;
76606;SDS011;65498;50.916;4.698;2023-02-28T11:58:26;3.58;;;1.35;;
76606;SDS011;65498;50.916;4.698;2023-02-28T12:01:23;2.65;;;1.00;;
76606;SDS011;65498;50.916;4.698;2023-02-28T12:09:54;4.65;;;1.57;;
76606;SDS011;65498;50.916;4.698;2023-02-28T12:23:46;4.08;;;1.30;;
76606;SDS011;65498;50.916;4.698;2023-02-28T12:26:36;3.35;;;1.20;;
76606;SDS011;65498;50.916;4.698;2023-02-28T12:29:10;3.25;;;1.10;;
76606;SDS011;65498;50.916;4.698;2023-02-28T12:31:47;4.20;;;1.20;;
76606;SDS011;65498;50.916;4.698;2023-02-28T12:34:31;4.22;;;1.42;;
76606;SDS011;65498;50.916;4.698;2023-02-28T12:36:54;3.58;;;1.22;;
76606;SDS011;65498;50.916;4.698;2023-02-28T12:39:26;3.72;;;1.20;;
76606;SDS011;65498;50.916;4.698;2023-02-28T12:42:01;5.55;;;1.40;;
76606;SDS011;65498;50.916;4.698;2023-02-28T12:44:44;3.40;;;1.25;;
76606;SDS011;65498;50.916;4.698;2023-02-28T12:47:29;4.08;;;1.30;;
76606;SDS011;65498;50.916;4.698;2023-02-28T12:50:02;3.10;;;1.20;;
76606;SDS011;65498;50.916;4.698;2023-02-28T12:57:52;3.58;;;1.20;;
76606;SDS011;65498;50.916;4.698;2023-02-28T13:00:21;3.40;;;1.00;;
76606;SDS011;65498;50.916;4.698;2023-02-28T13:02:55;5.83;;;1.40;;
76606;SDS011;65498;50.916;4.698;2023-02-28T13:08:41;3.60;;;1.10;;
76606;SDS011;65498;50.916;4.698;2023-02-28T13:11:25;2.87;;;1.10;;
76606;SDS011;65498;50.916;4.698;2023-02-28T13:13:59;5.77;;;1.53;;
76606;SDS011;65498;50.916;4.698;2023-02-28T13:16:28;3.10;;;1.25;;
76606;SDS011;65498;50.916;4.698;2023-02-28T13:19:16;3.40;;;1.22;;
76606;SDS011;65498;50.916;4.698;2023-02-28T13:21:46;4.70;;;1.30;;
76606;SDS011;65498;50.916;4.698;2023-02-28T13:25:00;3.08;;;1.02;;
76606;SDS011;65498;50.916;4.698;2023-02-28T13:29:37;3.77;;;1.10;;
76606;SDS011;65498;50.916;4.698;2023-02-28T13:34:39;2.20;;;1.00;;
76606;SDS011;65498;50.916;4.698;2023-02-28T13:39:49;2.00;;;1.00;;
76606;SDS011;65498;50.916;4.698;2023-02-28T13:47:35;4.53;;;1.15;;
76606;SDS011;65498;50.916;4.698;2023-02-28T13:50:21;2.65;;;1.05;;
76606;SDS011;65498;50.916;4.698;2023-02-28T14:06:50;3.87;;;1.00;;
76606;SDS011;65498;50.916;4.698;2023-02-28T14:09:27;2.72;;;1.12;;
76606;SDS011;65498;50.916;4.698;2023-02-28T14:11:56;2.70;;;1.10;;
76606;SDS011;65498;50.916;4.698;2023-02-28T14:17:16;4.30;;;1.10;;
76606;SDS011;65498;50.916;4.698;2023-02-28T14:19:41;4.35;;;1.10;;
76606;SDS011;65498;50.916;4.698;2023-02-28T14:25:07;3.40;;;1.10;;
76606;SDS011;65498;50.916;4.698;2023-02-28T14:30:36;2.58;;;1.00;;
76606;SDS011;65498;50.916;4.698;2023-02-28T14:33:03;3.35;;;1.10;;
76606;SDS011;65498;50.916;4.698;2023-02-28T14:38:23;3.02;;;1.00;;
76606;SDS011;65498;50.916;4.698;2023-02-28T14:40:56;4.62;;;1.17;;
76606;SDS011;65498;50.916;4.698;2023-02-28T14:43:26;3.02;;;1.10;;
76606;SDS011;65498;50.916;4.698;2023-02-28T14:45:58;2.02;;;0.80;;
76606;SDS011;65498;50.916;4.698;2023-02-28T14:48:28;2.92;;;1.37;;
76606;SDS011;65498;50.916;4.698;2023-02-28T14:50:57;3.83;;;1.27;;
76606;SDS011;65498;50.916;4.698;2023-02-28T14:53:30;2.10;;;0.80;;
76606;SDS011;65498;50.916;4.698;2023-02-28T14:56:00;3.00;;;0.98;;
76606;SDS011;65498;50.916;4.698;2023-02-28T14:58:30;3.50;;;1.20;;
76606;SDS011;65498;50.916;4.698;2023-02-28T15:00:59;3.87;;;1.20;;
76606;SDS011;65498;50.916;4.698;2023-02-28T15:06:15;1.90;;;0.80;;
76606;SDS011;65498;50.916;4.698;2023-02-28T15:08:44;2.17;;;0.98;;
76606;SDS011;65498;50.916;4.698;2023-02-28T15:11:16;2.47;;;0.75;;
76606;SDS011;65498;50.916;4.698;2023-02-28T15:13:48;4.03;;;1.17;;
76606;SDS011;65498;50.916;4.698;2023-02-28T15:16:22;4.08;;;1.20;;
76606;SDS011;65498;50.916;4.698;2023-02-28T15:18:56;2.98;;;1.20;;
76606;SDS011;65498;50.916;4.698;2023-02-28T15:21:28;3.37;;;1.27;;
76606;SDS011;65498;50.916;4.698;2023-02-28T15:26:41;3.98;;;1.20;;
76606;SDS011;65498;50.916;4.698;2023-02-28T15:29:15;3.00;;;1.00;;
76606;SDS011;65498;50.916;4.698;2023-02-28T15:31:46;2.17;;;1.00;;
76606;SDS011;65498;50.916;4.698;2023-02-28T15:34:26;3.15;;;1.20;;
76606;SDS011;65498;50.916;4.698;2023-02-28T15:36:54;3.60;;;1.17;;
76606;SDS011;65498;50.916;4.698;2023-02-28T15:39:23;3.67;;;1.00;;
76606;SDS011;65498;50.916;4.698;2023-02-28T15:42:09;3.47;;;1.10;;
76606;SDS011;65498;50.916;4.698;2023-02-28T15:44:41;3.85;;;1.20;;
76606;SDS011;65498;50.916;4.698;2023-02-28T15:47:19;3.95;;;1.10;;
76606;SDS011;65498;50.916;4.698;2023-02-28T15:49:52;4.17;;;1.10;;
76606;SDS011;65498;50.916;4.698;2023-02-28T15:52:24;3.83;;;1.00;;
76606;SDS011;65498;50.916;4.698;2023-02-28T15:54:58;3.25;;;1.10;;
76606;SDS011;65498;50.916;4.698;2023-02-28T15:57:27;3.05;;;1.10;;
76606;SDS011;65498;50.916;4.698;2023-02-28T15:59:58;2.27;;;1.00;;
76606;SDS011;65498;50.916;4.698;2023-02-28T16:05:01;3.08;;;1.00;;
76606;SDS011;65498;50.916;4.698;2023-02-28T16:07:37;2.12;;;0.88;;
76606;SDS011;65498;50.916;4.698;2023-02-28T16:10:07;2.83;;;1.10;;
76606;SDS011;65498;50.916;4.698;2023-02-28T16:12:37;3.02;;;1.07;;
76606;SDS011;65498;50.916;4.698;2023-02-28T16:17:46;2.83;;;1.05;;
76606;SDS011;65498;50.916;4.698;2023-02-28T16:20:19;3.08;;;1.00;;
76606;SDS011;65498;50.916;4.698;2023-02-28T16:22:45;3.80;;;1.27;;
76606;SDS011;65498;50.916;4.698;2023-02-28T16:25:16;4.17;;;1.07;;
76606;SDS011;65498;50.916;4.698;2023-02-28T16:27:47;3.40;;;1.30;;
76606;SDS011;65498;50.916;4.698;2023-02-28T16:30:20;2.83;;;1.20;;
76606;SDS011;65498;50.916;4.698;2023-02-28T16:32:50;2.45;;;1.00;;
76606;SDS011;65498;50.916;4.698;2023-02-28T16:35:19;4.47;;;1.00;;
76606;SDS011;65498;50.916;4.698;2023-02-28T16:37:47;2.22;;;0.90;;
76606;SDS011;65498;50.916;4.698;2023-02-28T16:40:15;2.75;;;0.90;;
76606;SDS011;65498;50.916;4.698;2023-02-28T16:42:46;3.55;;;1.20;;
76606;SDS011;65498;50.916;4.698;2023-02-28T16:45:22;3.27;;;1.30;;
76606;SDS011;65498;50.916;4.698;2023-02-28T16:47:50;4.47;;;1.20;;
76606;SDS011;65498;50.916;4.698;2023-02-28T16:50:22;3.05;;;1.15;;
76606;SDS011;65498;50.916;4.698;2023-02-28T16:52:53;4.78;;;1.50;;
76606;SDS011;65498;50.916;4.698;2023-02-28T16:55:22;3.77;;;1.32;;
76606;SDS011;65498;50.916;4.698;2023-02-28T16:57:57;4.87;;;1.40;;
76606;SDS011;65498;50.916;4.698;2023-02-28T17:00:22;5.12;;;1.42;;
76606;SDS011;65498;50.916;4.698;2023-02-28T17:02:51;4.40;;;1.40;;
76606;SDS011;65498;50.916;4.698;2023-02-28T17:05:18;4.08;;;1.12;;
76606;SDS011;65498;50.916;4.698;2023-02-28T17:07:46;3.65;;;1.30;;
76606;SDS011;65498;50.916;4.698;2023-02-28T17:10:22;3.47;;;1.20;;
76606;SDS011;65498;50.916;4.698;2023-02-28T17:12:51;5.37;;;1.42;;
76606;SDS011;65498;50.916;4.698;2023-02-28T17:15:19;4.22;;;1.37;;
76606;SDS011;65498;50.916;4.698;2023-02-28T17:17:47;4.97;;;1.40;;